Tetide — IVTN — position and weather

sailwx.info

Track history (hours):
 
Tides and Currents Weather Stations Pressure Air Temp Water Temp Dewpoint Dewpoint Depression Visibility Wind Speed Wind Dir Waves Ship Positions

Tetide

Last reported at 2014-Sep-18 21:33 UTC. Time now 2014-Sep-19 23:55 UTC.
Position N 41°15' E 013°37'.

Length 70 m; draft 3.6 m.

Type: Passenger vessel. MMSI: 247043100.

Date/timePositionNaut miles runAvg speedWind from/ knotsBaromVisibWave heightAir tempDewpointWater temp
2014-Sep-18 21:33N 41°15' E 013°37'0 0.0
2014-Sep-18 20:33N 41°15' E 013°37'0 0.0
2014-Sep-18 19:33N 41°15' E 013°37'0 0.0
2014-Sep-18 18:33N 41°15' E 013°37'2 2.1
2014-Sep-18 17:33N 41°13' E 013°37'1914.9
2014-Sep-18 16:18N 40°56' E 013°29'21 1.4
2014-Sep-18 01:23N 41°15' E 013°37'0 0.0
2014-Sep-18 00:27N 41°15' E 013°37'0 0.0
2014-Sep-17 22:33N 41°15' E 013°37'0 0.0
2014-Sep-17 21:34N 41°15' E 013°37'0 0.0
2014-Sep-17 20:33N 41°15' E 013°37'0 0.0
2014-Sep-17 19:33N 41°15' E 013°37'0 0.0
2014-Sep-17 18:24N 41°15' E 013°37'8 6.5
2014-Sep-17 17:12N 41°08' E 013°35'1614.7
2014-Sep-17 16:08N 40°53' E 013°28'4 0.1
2014-Sep-15 16:24N 40°57' E 013°30'9 1.3
2014-Sep-15 09:17N 40°48' E 013°26'1012.8
2014-Sep-15 08:30N 40°58' E 013°29'19 3.6
2014-Sep-15 03:19N 41°15' E 013°37'20 1.8
2014-Sep-14 16:24N 40°56' E 013°30'3 0.3
2014-Sep-14 08:18N 40°59' E 013°30'1714.0
2014-Sep-14 07:04N 41°15' E 013°37'0 0.1
2014-Sep-14 06:17N 41°15' E 013°37'0 0.0
2014-Sep-13 20:31N 41°15' E 013°37'0 0.0
2014-Sep-13 19:33N 41°15' E 013°37'20 6.3
2014-Sep-13 16:20N 40°56' E 013°29'11 0.5
2014-Sep-12 17:07N 41°06' E 013°34'1014.5
2014-Sep-12 16:25N 40°57' E 013°30'9 1.5
2014-Sep-12 10:28N 40°48' E 013°26'1 0.8
2014-Sep-12 09:10N 40°49' E 013°26'914.1
2014-Sep-12 08:32N 40°58' E 013°29'2 0.1
2014-Sep-11 16:21N 40°56' E 013°29'8 4.0
2014-Sep-11 14:17N 40°48' E 013°26'  
Track history (hours):
 
Tides and Currents Weather Stations Pressure Air Temp Water Temp Dewpoint Dewpoint Depression Visibility Wind Speed Wind Dir Waves Ship Positions

Tetide

Last reported at 2014-Sep-18 21:33 UTC. Time now 2014-Sep-19 23:55 UTC.
Position N 41°15' E 013°37'.

Length 70 m; draft 3.6 m.

Type: Passenger vessel. MMSI: 247043100.

Date/timePositionNaut miles runAvg speedWind from/ knotsBaromVisibWave heightAir tempDewpointWater temp
2014-Sep-18 21:33N 41°15' E 013°37'0 0.0
2014-Sep-18 20:33N 41°15' E 013°37'0 0.0
2014-Sep-18 19:33N 41°15' E 013°37'0 0.0
2014-Sep-18 18:33N 41°15' E 013°37'2 2.1
2014-Sep-18 17:33N 41°13' E 013°37'1914.9
2014-Sep-18 16:18N 40°56' E 013°29'21 1.4
2014-Sep-18 01:23N 41°15' E 013°37'0 0.0
2014-Sep-18 00:27N 41°15' E 013°37'0 0.0
2014-Sep-17 22:33N 41°15' E 013°37'0 0.0
2014-Sep-17 21:34N 41°15' E 013°37'0 0.0
2014-Sep-17 20:33N 41°15' E 013°37'0 0.0
2014-Sep-17 19:33N 41°15' E 013°37'0 0.0
2014-Sep-17 18:24N 41°15' E 013°37'8 6.5
2014-Sep-17 17:12N 41°08' E 013°35'1614.7
2014-Sep-17 16:08N 40°53' E 013°28'4 0.1
2014-Sep-15 16:24N 40°57' E 013°30'9 1.3
2014-Sep-15 09:17N 40°48' E 013°26'1012.8
2014-Sep-15 08:30N 40°58' E 013°29'19 3.6
2014-Sep-15 03:19N 41°15' E 013°37'20 1.8
2014-Sep-14 16:24N 40°56' E 013°30'3 0.3
2014-Sep-14 08:18N 40°59' E 013°30'1714.0
2014-Sep-14 07:04N 41°15' E 013°37'0 0.1
2014-Sep-14 06:17N 41°15' E 013°37'0 0.0
2014-Sep-13 20:31N 41°15' E 013°37'0 0.0
2014-Sep-13 19:33N 41°15' E 013°37'20 6.3
2014-Sep-13 16:20N 40°56' E 013°29'11 0.5
2014-Sep-12 17:07N 41°06' E 013°34'1014.5
2014-Sep-12 16:25N 40°57' E 013°30'9 1.5
2014-Sep-12 10:28N 40°48' E 013°26'1 0.8
2014-Sep-12 09:10N 40°49' E 013°26'914.1
2014-Sep-12 08:32N 40°58' E 013°29'2 0.1
2014-Sep-11 16:21N 40°56' E 013°29'8 4.0
2014-Sep-11 14:17N 40°48' E 013°26'  

Dump ship's entire track history